sensor_id;sensor_type;location;lat;lon;timestamp;P1;durP1;ratioP1;P2;durP2;ratioP2
78840;SDS011;68379;47.190;27.558;2024-03-23T00:54:34;13.40;;;7.10;;
78840;SDS011;68379;47.190;27.558;2024-03-23T00:57:06;12.60;;;6.70;;
78840;SDS011;68379;47.190;27.558;2024-03-23T00:59:37;12.10;;;6.50;;
78840;SDS011;68379;47.190;27.558;2024-03-23T01:02:10;9.50;;;5.80;;
78840;SDS011;68379;47.190;27.558;2024-03-23T01:04:41;12.40;;;6.40;;
78840;SDS011;68379;47.190;27.558;2024-03-23T01:07:15;14.20;;;6.60;;
78840;SDS011;68379;47.190;27.558;2024-03-23T01:09:47;12.80;;;6.80;;
78840;SDS011;68379;47.190;27.558;2024-03-23T01:12:21;12.20;;;6.90;;
78840;SDS011;68379;47.190;27.558;2024-03-23T01:14:54;11.20;;;6.20;;
78840;SDS011;68379;47.190;27.558;2024-03-23T01:17:26;12.90;;;6.80;;
78840;SDS011;68379;47.190;27.558;2024-03-23T01:19:57;13.20;;;7.00;;
78840;SDS011;68379;47.190;27.558;2024-03-23T01:22:29;14.20;;;7.00;;
78840;SDS011;68379;47.190;27.558;2024-03-23T01:25:01;12.10;;;6.50;;
78840;SDS011;68379;47.190;27.558;2024-03-23T01:27:33;14.60;;;6.60;;
78840;SDS011;68379;47.190;27.558;2024-03-23T01:30:05;12.80;;;6.80;;
78840;SDS011;68379;47.190;27.558;2024-03-23T01:32:38;14.50;;;7.70;;
78840;SDS011;68379;47.190;27.558;2024-03-23T01:35:10;14.00;;;6.70;;
78840;SDS011;68379;47.190;27.558;2024-03-23T01:37:42;15.40;;;8.10;;
78840;SDS011;68379;47.190;27.558;2024-03-23T01:40:13;12.40;;;6.40;;
78840;SDS011;68379;47.190;27.558;2024-03-23T01:42:56;14.50;;;7.00;;
78840;SDS011;68379;47.190;27.558;2024-03-23T01:45:27;12.60;;;6.90;;
78840;SDS011;68379;47.190;27.558;2024-03-23T01:48:00;13.60;;;6.90;;
78840;SDS011;68379;47.190;27.558;2024-03-23T01:50:32;12.60;;;6.80;;
78840;SDS011;68379;47.190;27.558;2024-03-23T01:53:04;11.70;;;6.70;;
78840;SDS011;68379;47.190;27.558;2024-03-23T01:55:36;14.60;;;6.70;;
78840;SDS011;68379;47.190;27.558;2024-03-23T01:58:09;14.40;;;7.60;;
78840;SDS011;68379;47.190;27.558;2024-03-23T02:00:41;14.00;;;6.40;;
78840;SDS011;68379;47.190;27.558;2024-03-23T02:03:23;13.80;;;7.10;;
78840;SDS011;68379;47.190;27.558;2024-03-23T02:05:56;13.20;;;6.90;;
78840;SDS011;68379;47.190;27.558;2024-03-23T02:08:28;14.00;;;7.30;;
78840;SDS011;68379;47.190;27.558;2024-03-23T02:11:01;12.90;;;6.70;;
78840;SDS011;68379;47.190;27.558;2024-03-23T02:13:35;12.80;;;5.90;;
78840;SDS011;68379;47.190;27.558;2024-03-23T02:16:06;14.70;;;6.90;;
78840;SDS011;68379;47.190;27.558;2024-03-23T02:18:38;13.40;;;6.90;;
78840;SDS011;68379;47.190;27.558;2024-03-23T02:21:10;13.00;;;6.70;;
78840;SDS011;68379;47.190;27.558;2024-03-23T02:23:41;10.20;;;6.30;;
78840;SDS011;68379;47.190;27.558;2024-03-23T02:26:14;14.70;;;7.50;;
78840;SDS011;68379;47.190;27.558;2024-03-23T02:28:45;11.70;;;6.10;;
78840;SDS011;68379;47.190;27.558;2024-03-23T02:31:17;13.10;;;6.90;;
78840;SDS011;68379;47.190;27.558;2024-03-23T02:33:48;12.60;;;6.70;;
78840;SDS011;68379;47.190;27.558;2024-03-23T02:36:20;12.00;;;6.30;;
78840;SDS011;68379;47.190;27.558;2024-03-23T02:38:54;12.50;;;6.60;;
78840;SDS011;68379;47.190;27.558;2024-03-23T02:41:26;14.30;;;7.30;;
78840;SDS011;68379;47.190;27.558;2024-03-23T02:43:57;11.70;;;6.20;;
78840;SDS011;68379;47.190;27.558;2024-03-23T02:46:29;15.00;;;6.80;;
78840;SDS011;68379;47.190;27.558;2024-03-23T02:49:01;13.80;;;6.80;;
78840;SDS011;68379;47.190;27.558;2024-03-23T02:51:32;15.10;;;7.50;;
78840;SDS011;68379;47.190;27.558;2024-03-23T02:54:04;12.60;;;6.60;;
78840;SDS011;68379;47.190;27.558;2024-03-23T02:56:36;13.80;;;6.50;;
78840;SDS011;68379;47.190;27.558;2024-03-23T02:59:08;12.00;;;6.90;;
78840;SDS011;68379;47.190;27.558;2024-03-23T03:01:40;13.20;;;7.20;;
78840;SDS011;68379;47.190;27.558;2024-03-23T03:04:12;13.90;;;6.80;;
78840;SDS011;68379;47.190;27.558;2024-03-23T03:06:43;11.80;;;7.10;;
78840;SDS011;68379;47.190;27.558;2024-03-23T03:09:17;13.10;;;6.80;;
78840;SDS011;68379;47.190;27.558;2024-03-23T03:11:48;13.10;;;7.00;;
78840;SDS011;68379;47.190;27.558;2024-03-23T03:14:21;13.30;;;6.80;;
78840;SDS011;68379;47.190;27.558;2024-03-23T03:16:52;12.40;;;7.00;;
78840;SDS011;68379;47.190;27.558;2024-03-23T03:19:26;14.90;;;7.00;;
78840;SDS011;68379;47.190;27.558;2024-03-23T03:21:57;14.70;;;7.70;;
78840;SDS011;68379;47.190;27.558;2024-03-23T03:27:31;13.80;;;7.70;;
78840;SDS011;68379;47.190;27.558;2024-03-23T03:30:02;14.90;;;8.00;;
78840;SDS011;68379;47.190;27.558;2024-03-23T03:32:37;15.70;;;7.50;;
78840;SDS011;68379;47.190;27.558;2024-03-23T03:35:10;17.80;;;8.90;;
78840;SDS011;68379;47.190;27.558;2024-03-23T03:37:42;14.90;;;8.00;;
78840;SDS011;68379;47.190;27.558;2024-03-23T03:40:14;14.10;;;7.50;;
78840;SDS011;68379;47.190;27.558;2024-03-23T03:42:46;17.10;;;8.30;;
78840;SDS011;68379;47.190;27.558;2024-03-23T03:45:17;15.00;;;8.20;;
78840;SDS011;68379;47.190;27.558;2024-03-23T03:47:49;21.90;;;8.30;;
78840;SDS011;68379;47.190;27.558;2024-03-23T03:50:23;15.60;;;9.00;;
78840;SDS011;68379;47.190;27.558;2024-03-23T03:52:54;14.80;;;7.90;;
78840;SDS011;68379;47.190;27.558;2024-03-23T03:55:26;14.80;;;7.00;;
78840;SDS011;68379;47.190;27.558;2024-03-23T03:57:57;15.30;;;7.50;;
78840;SDS011;68379;47.190;27.558;2024-03-23T04:00:29;13.10;;;6.80;;
78840;SDS011;68379;47.190;27.558;2024-03-23T04:03:00;16.00;;;8.10;;
78840;SDS011;68379;47.190;27.558;2024-03-23T04:05:32;13.90;;;7.20;;
78840;SDS011;68379;47.190;27.558;2024-03-23T04:08:04;14.80;;;8.30;;
78840;SDS011;68379;47.190;27.558;2024-03-23T04:10:38;17.60;;;8.00;;
78840;SDS011;68379;47.190;27.558;2024-03-23T04:13:10;13.80;;;7.40;;
78840;SDS011;68379;47.190;27.558;2024-03-23T04:15:41;16.10;;;8.10;;
78840;SDS011;68379;47.190;27.558;2024-03-23T04:18:13;13.60;;;7.30;;
78840;SDS011;68379;47.190;27.558;2024-03-23T04:20:44;13.20;;;7.20;;
78840;SDS011;68379;47.190;27.558;2024-03-23T04:23:17;15.40;;;7.10;;
78840;SDS011;68379;47.190;27.558;2024-03-23T04:25:49;15.20;;;7.00;;
78840;SDS011;68379;47.190;27.558;2024-03-23T04:28:21;16.70;;;7.10;;
78840;SDS011;68379;47.190;27.558;2024-03-23T04:30:53;12.80;;;6.50;;
78840;SDS011;68379;47.190;27.558;2024-03-23T04:33:30;16.30;;;7.90;;
78840;SDS011;68379;47.190;27.558;2024-03-23T04:36:04;15.70;;;7.50;;
78840;SDS011;68379;47.190;27.558;2024-03-23T04:38:36;17.60;;;8.00;;
78840;SDS011;68379;47.190;27.558;2024-03-23T04:41:07;15.20;;;7.60;;
78840;SDS011;68379;47.190;27.558;2024-03-23T04:43:39;15.00;;;7.80;;
78840;SDS011;68379;47.190;27.558;2024-03-23T04:46:10;12.70;;;7.00;;
78840;SDS011;68379;47.190;27.558;2024-03-23T04:48:42;16.90;;;8.00;;
78840;SDS011;68379;47.190;27.558;2024-03-23T04:51:22;18.30;;;7.30;;
78840;SDS011;68379;47.190;27.558;2024-03-23T04:53:55;19.20;;;8.00;;
78840;SDS011;68379;47.190;27.558;2024-03-23T04:56:28;14.60;;;6.90;;
78840;SDS011;68379;47.190;27.558;2024-03-23T04:59:01;15.80;;;8.40;;
78840;SDS011;68379;47.190;27.558;2024-03-23T05:01:35;17.20;;;8.00;;
78840;SDS011;68379;47.190;27.558;2024-03-23T05:04:07;19.40;;;8.30;;
78840;SDS011;68379;47.190;27.558;2024-03-23T05:06:38;16.40;;;7.90;;
78840;SDS011;68379;47.190;27.558;2024-03-23T05:09:10;14.80;;;8.50;;
78840;SDS011;68379;47.190;27.558;2024-03-23T05:11:43;17.70;;;9.00;;
78840;SDS011;68379;47.190;27.558;2024-03-23T05:14:15;18.20;;;8.90;;
78840;SDS011;68379;47.190;27.558;2024-03-23T05:16:48;14.40;;;8.60;;
78840;SDS011;68379;47.190;27.558;2024-03-23T05:19:20;18.40;;;8.60;;
78840;SDS011;68379;47.190;27.558;2024-03-23T05:21:51;15.60;;;7.70;;
78840;SDS011;68379;47.190;27.558;2024-03-23T05:24:24;18.90;;;7.90;;
78840;SDS011;68379;47.190;27.558;2024-03-23T05:26:55;16.50;;;8.70;;
78840;SDS011;68379;47.190;27.558;2024-03-23T05:29:27;15.20;;;8.00;;
78840;SDS011;68379;47.190;27.558;2024-03-23T05:31:58;15.40;;;8.50;;
78840;SDS011;68379;47.190;27.558;2024-03-23T05:34:30;15.90;;;8.90;;
78840;SDS011;68379;47.190;27.558;2024-03-23T05:37:02;18.70;;;9.10;;
78840;SDS011;68379;47.190;27.558;2024-03-23T05:39:34;15.50;;;8.10;;
78840;SDS011;68379;47.190;27.558;2024-03-23T05:44:37;14.30;;;7.80;;
78840;SDS011;68379;47.190;27.558;2024-03-23T05:47:09;14.30;;;7.30;;
78840;SDS011;68379;47.190;27.558;2024-03-23T05:49:41;15.50;;;8.00;;
78840;SDS011;68379;47.190;27.558;2024-03-23T05:52:13;16.80;;;8.50;;
78840;SDS011;68379;47.190;27.558;2024-03-23T05:54:44;17.00;;;8.30;;
78840;SDS011;68379;47.190;27.558;2024-03-23T05:57:16;18.30;;;9.00;;
78840;SDS011;68379;47.190;27.558;2024-03-23T05:59:50;17.60;;;8.60;;
78840;SDS011;68379;47.190;27.558;2024-03-23T06:02:22;16.20;;;8.80;;
78840;SDS011;68379;47.190;27.558;2024-03-23T06:04:53;19.20;;;9.10;;
78840;SDS011;68379;47.190;27.558;2024-03-23T06:07:26;16.40;;;8.10;;
78840;SDS011;68379;47.190;27.558;2024-03-23T06:09:59;16.30;;;8.80;;
78840;SDS011;68379;47.190;27.558;2024-03-23T06:12:31;15.80;;;9.40;;
78840;SDS011;68379;47.190;27.558;2024-03-23T06:15:03;18.00;;;9.10;;
78840;SDS011;68379;47.190;27.558;2024-03-23T06:17:41;14.60;;;8.00;;
78840;SDS011;68379;47.190;27.558;2024-03-23T06:20:12;16.40;;;8.60;;
78840;SDS011;68379;47.190;27.558;2024-03-23T06:22:43;16.40;;;8.90;;
78840;SDS011;68379;47.190;27.558;2024-03-23T06:25:15;15.90;;;7.80;;
78840;SDS011;68379;47.190;27.558;2024-03-23T06:27:46;13.50;;;7.60;;
78840;SDS011;68379;47.190;27.558;2024-03-23T06:30:19;14.30;;;8.40;;
78840;SDS011;68379;47.190;27.558;2024-03-23T06:32:51;16.70;;;9.10;;
78840;SDS011;68379;47.190;27.558;2024-03-23T06:35:23;18.70;;;9.60;;
78840;SDS011;68379;47.190;27.558;2024-03-23T06:37:55;15.80;;;8.20;;
78840;SDS011;68379;47.190;27.558;2024-03-23T06:40:27;18.10;;;9.70;;
78840;SDS011;68379;47.190;27.558;2024-03-23T06:42:58;15.50;;;8.50;;
78840;SDS011;68379;47.190;27.558;2024-03-23T06:45:30;15.80;;;8.30;;
78840;SDS011;68379;47.190;27.558;2024-03-23T06:48:02;14.50;;;8.60;;
78840;SDS011;68379;47.190;27.558;2024-03-23T06:50:36;13.90;;;7.70;;
78840;SDS011;68379;47.190;27.558;2024-03-23T06:53:10;13.20;;;7.40;;
78840;SDS011;68379;47.190;27.558;2024-03-23T06:55:41;12.50;;;7.30;;
78840;SDS011;68379;47.190;27.558;2024-03-23T06:58:20;13.30;;;8.40;;
78840;SDS011;68379;47.190;27.558;2024-03-23T07:00:53;16.80;;;8.10;;
78840;SDS011;68379;47.190;27.558;2024-03-23T07:03:25;15.30;;;8.00;;
78840;SDS011;68379;47.190;27.558;2024-03-23T07:05:59;14.10;;;8.10;;
78840;SDS011;68379;47.190;27.558;2024-03-23T07:08:35;15.90;;;8.20;;
78840;SDS011;68379;47.190;27.558;2024-03-23T07:11:06;15.30;;;8.00;;
78840;SDS011;68379;47.190;27.558;2024-03-23T07:13:38;16.00;;;8.40;;
78840;SDS011;68379;47.190;27.558;2024-03-23T07:16:10;15.60;;;8.50;;
78840;SDS011;68379;47.190;27.558;2024-03-23T07:18:42;14.10;;;8.90;;
78840;SDS011;68379;47.190;27.558;2024-03-23T07:21:14;17.00;;;8.40;;
78840;SDS011;68379;47.190;27.558;2024-03-23T07:23:46;17.00;;;8.90;;
78840;SDS011;68379;47.190;27.558;2024-03-23T07:26:17;16.70;;;8.70;;
78840;SDS011;68379;47.190;27.558;2024-03-23T07:28:49;17.10;;;9.00;;
78840;SDS011;68379;47.190;27.558;2024-03-23T07:31:21;19.00;;;9.40;;
78840;SDS011;68379;47.190;27.558;2024-03-23T07:33:53;16.70;;;9.00;;
78840;SDS011;68379;47.190;27.558;2024-03-23T07:36:24;19.30;;;9.50;;
78840;SDS011;68379;47.190;27.558;2024-03-23T07:38:56;18.90;;;9.50;;
78840;SDS011;68379;47.190;27.558;2024-03-23T07:41:27;15.80;;;9.10;;
78840;SDS011;68379;47.190;27.558;2024-03-23T07:43:58;15.90;;;9.60;;
78840;SDS011;68379;47.190;27.558;2024-03-23T07:46:30;15.60;;;9.50;;
78840;SDS011;68379;47.190;27.558;2024-03-23T07:49:02;19.00;;;10.00;;
78840;SDS011;68379;47.190;27.558;2024-03-23T07:51:36;15.90;;;10.50;;
78840;SDS011;68379;47.190;27.558;2024-03-23T07:54:11;15.00;;;9.50;;
78840;SDS011;68379;47.190;27.558;2024-03-23T07:56:45;16.80;;;10.10;;
78840;SDS011;68379;47.190;27.558;2024-03-23T07:59:17;17.80;;;9.20;;
78840;SDS011;68379;47.190;27.558;2024-03-23T08:01:48;21.10;;;11.70;;
78840;SDS011;68379;47.190;27.558;2024-03-23T08:04:20;16.20;;;9.90;;
78840;SDS011;68379;47.190;27.558;2024-03-23T08:06:52;19.10;;;10.60;;
78840;SDS011;68379;47.190;27.558;2024-03-23T08:09:23;16.60;;;9.60;;
78840;SDS011;68379;47.190;27.558;2024-03-23T08:11:58;15.60;;;9.70;;
78840;SDS011;68379;47.190;27.558;2024-03-23T08:14:30;15.20;;;9.10;;
78840;SDS011;68379;47.190;27.558;2024-03-23T08:17:01;15.70;;;8.90;;
78840;SDS011;68379;47.190;27.558;2024-03-23T08:19:33;14.50;;;8.90;;
78840;SDS011;68379;47.190;27.558;2024-03-23T08:22:04;13.30;;;7.90;;
78840;SDS011;68379;47.190;27.558;2024-03-23T08:24:36;13.10;;;8.00;;
78840;SDS011;68379;47.190;27.558;2024-03-23T08:27:08;14.40;;;8.00;;
78840;SDS011;68379;47.190;27.558;2024-03-23T08:29:40;13.50;;;7.60;;
78840;SDS011;68379;47.190;27.558;2024-03-23T08:32:11;13.70;;;7.10;;
78840;SDS011;68379;47.190;27.558;2024-03-23T08:34:43;13.20;;;7.80;;
78840;SDS011;68379;47.190;27.558;2024-03-23T08:37:15;12.60;;;7.70;;
78840;SDS011;68379;47.190;27.558;2024-03-23T08:39:49;13.80;;;7.10;;
78840;SDS011;68379;47.190;27.558;2024-03-23T08:42:22;11.50;;;6.50;;
78840;SDS011;68379;47.190;27.558;2024-03-23T08:44:53;11.50;;;7.00;;
78840;SDS011;68379;47.190;27.558;2024-03-23T08:47:25;11.70;;;7.30;;
78840;SDS011;68379;47.190;27.558;2024-03-23T08:49:59;10.50;;;6.30;;
78840;SDS011;68379;47.190;27.558;2024-03-23T08:52:30;11.80;;;7.00;;
78840;SDS011;68379;47.190;27.558;2024-03-23T08:55:02;9.70;;;6.30;;
78840;SDS011;68379;47.190;27.558;2024-03-23T08:57:35;10.80;;;6.60;;
78840;SDS011;68379;47.190;27.558;2024-03-23T09:00:07;12.50;;;7.50;;
78840;SDS011;68379;47.190;27.558;2024-03-23T09:02:41;11.10;;;7.00;;
78840;SDS011;68379;47.190;27.558;2024-03-23T09:05:16;11.10;;;6.60;;
78840;SDS011;68379;47.190;27.558;2024-03-23T09:07:47;10.80;;;6.30;;
78840;SDS011;68379;47.190;27.558;2024-03-23T09:10:18;10.50;;;6.20;;
78840;SDS011;68379;47.190;27.558;2024-03-23T09:12:51;9.30;;;6.40;;
78840;SDS011;68379;47.190;27.558;2024-03-23T09:15:22;11.40;;;6.60;;
78840;SDS011;68379;47.190;27.558;2024-03-23T09:17:54;14.10;;;7.00;;
78840;SDS011;68379;47.190;27.558;2024-03-23T09:20:25;12.70;;;7.30;;
78840;SDS011;68379;47.190;27.558;2024-03-23T09:22:58;12.10;;;6.30;;
78840;SDS011;68379;47.190;27.558;2024-03-23T09:25:29;8.80;;;5.80;;
78840;SDS011;68379;47.190;27.558;2024-03-23T09:28:05;10.40;;;6.30;;
78840;SDS011;68379;47.190;27.558;2024-03-23T09:30:37;10.90;;;6.50;;
78840;SDS011;68379;47.190;27.558;2024-03-23T09:33:10;11.70;;;6.70;;
78840;SDS011;68379;47.190;27.558;2024-03-23T09:35:42;11.00;;;6.70;;
78840;SDS011;68379;47.190;27.558;2024-03-23T09:38:15;10.90;;;6.30;;
78840;SDS011;68379;47.190;27.558;2024-03-23T09:40:46;10.80;;;6.60;;
78840;SDS011;68379;47.190;27.558;2024-03-23T09:43:24;12.20;;;6.40;;
78840;SDS011;68379;47.190;27.558;2024-03-23T09:45:56;13.40;;;7.50;;
78840;SDS011;68379;47.190;27.558;2024-03-23T09:48:30;10.20;;;6.60;;
78840;SDS011;68379;47.190;27.558;2024-03-23T09:51:02;12.30;;;7.00;;
78840;SDS011;68379;47.190;27.558;2024-03-23T09:56:23;11.10;;;7.00;;
78840;SDS011;68379;47.190;27.558;2024-03-23T09:58:59;10.40;;;6.30;;
78840;SDS011;68379;47.190;27.558;2024-03-23T10:01:37;10.70;;;6.50;;
78840;SDS011;68379;47.190;27.558;2024-03-23T10:04:23;9.70;;;6.00;;
78840;SDS011;68379;47.190;27.558;2024-03-23T10:09:43;11.30;;;6.10;;
78840;SDS011;68379;47.190;27.558;2024-03-23T10:12:17;11.00;;;6.50;;
78840;SDS011;68379;47.190;27.558;2024-03-23T10:14:50;11.20;;;6.00;;
78840;SDS011;68379;47.190;27.558;2024-03-23T10:17:21;9.90;;;6.10;;
78840;SDS011;68379;47.190;27.558;2024-03-23T10:19:55;11.20;;;6.40;;
78840;SDS011;68379;47.190;27.558;2024-03-23T10:22:27;10.70;;;6.50;;
78840;SDS011;68379;47.190;27.558;2024-03-23T10:25:11;9.80;;;6.20;;
78840;SDS011;68379;47.190;27.558;2024-03-23T10:27:43;10.10;;;6.10;;
78840;SDS011;68379;47.190;27.558;2024-03-23T10:30:27;9.50;;;6.10;;
78840;SDS011;68379;47.190;27.558;2024-03-23T10:33:08;10.50;;;6.70;;
78840;SDS011;68379;47.190;27.558;2024-03-23T10:35:41;12.10;;;6.20;;
78840;SDS011;68379;47.190;27.558;2024-03-23T10:40:44;8.50;;;5.70;;
78840;SDS011;68379;47.190;27.558;2024-03-23T10:45:47;9.30;;;5.90;;
78840;SDS011;68379;47.190;27.558;2024-03-23T10:48:22;7.80;;;5.10;;
78840;SDS011;68379;47.190;27.558;2024-03-23T10:50:55;9.50;;;5.50;;
78840;SDS011;68379;47.190;27.558;2024-03-23T10:53:27;8.80;;;5.70;;
78840;SDS011;68379;47.190;27.558;2024-03-23T10:56:02;8.70;;;5.90;;
78840;SDS011;68379;47.190;27.558;2024-03-23T10:58:37;9.20;;;5.50;;
78840;SDS011;68379;47.190;27.558;2024-03-23T11:01:13;8.50;;;5.70;;
78840;SDS011;68379;47.190;27.558;2024-03-23T11:03:46;9.50;;;5.60;;
78840;SDS011;68379;47.190;27.558;2024-03-23T11:09:14;7.90;;;4.80;;
78840;SDS011;68379;47.190;27.558;2024-03-23T11:12:24;8.80;;;5.20;;
78840;SDS011;68379;47.190;27.558;2024-03-23T11:14:59;8.00;;;5.00;;
78840;SDS011;68379;47.190;27.558;2024-03-23T11:17:33;7.50;;;5.00;;
78840;SDS011;68379;47.190;27.558;2024-03-23T11:20:07;7.40;;;4.80;;
78840;SDS011;68379;47.190;27.558;2024-03-23T11:25:36;8.40;;;6.00;;
78840;SDS011;68379;47.190;27.558;2024-03-23T11:28:11;8.90;;;6.30;;
78840;SDS011;68379;47.190;27.558;2024-03-23T11:30:44;9.30;;;5.60;;
78840;SDS011;68379;47.190;27.558;2024-03-23T11:33:16;8.80;;;5.90;;
78840;SDS011;68379;47.190;27.558;2024-03-23T11:35:48;8.30;;;5.50;;
78840;SDS011;68379;47.190;27.558;2024-03-23T11:38:20;9.00;;;5.40;;
78840;SDS011;68379;47.190;27.558;2024-03-23T11:40:54;8.70;;;5.60;;
78840;SDS011;68379;47.190;27.558;2024-03-23T11:43:34;9.40;;;5.70;;
78840;SDS011;68379;47.190;27.558;2024-03-23T11:46:06;7.80;;;5.00;;
78840;SDS011;68379;47.190;27.558;2024-03-23T11:48:37;8.90;;;5.80;;
78840;SDS011;68379;47.190;27.558;2024-03-23T11:51:09;7.80;;;5.30;;
78840;SDS011;68379;47.190;27.558;2024-03-23T11:53:40;8.20;;;5.10;;
78840;SDS011;68379;47.190;27.558;2024-03-23T11:56:12;8.70;;;5.40;;
78840;SDS011;68379;47.190;27.558;2024-03-23T11:58:49;9.50;;;6.00;;
78840;SDS011;68379;47.190;27.558;2024-03-23T12:01:21;11.60;;;7.20;;
78840;SDS011;68379;47.190;27.558;2024-03-23T12:03:55;8.60;;;5.20;;
78840;SDS011;68379;47.190;27.558;2024-03-23T12:06:27;9.00;;;5.60;;
78840;SDS011;68379;47.190;27.558;2024-03-23T12:09:06;9.00;;;5.70;;
78840;SDS011;68379;47.190;27.558;2024-03-23T12:14:07;7.60;;;5.10;;
78840;SDS011;68379;47.190;27.558;2024-03-23T12:16:40;11.00;;;6.10;;
78840;SDS011;68379;47.190;27.558;2024-03-23T12:19:13;6.30;;;4.70;;
78840;SDS011;68379;47.190;27.558;2024-03-23T12:21:46;9.40;;;5.00;;
78840;SDS011;68379;47.190;27.558;2024-03-23T12:24:20;9.30;;;5.70;;
78840;SDS011;68379;47.190;27.558;2024-03-23T12:26:52;7.60;;;5.20;;
78840;SDS011;68379;47.190;27.558;2024-03-23T12:29:25;7.30;;;5.00;;
78840;SDS011;68379;47.190;27.558;2024-03-23T12:31:59;9.30;;;5.20;;
78840;SDS011;68379;47.190;27.558;2024-03-23T12:34:30;8.50;;;5.00;;
78840;SDS011;68379;47.190;27.558;2024-03-23T12:37:02;9.00;;;5.70;;
78840;SDS011;68379;47.190;27.558;2024-03-23T12:39:35;7.30;;;5.40;;
78840;SDS011;68379;47.190;27.558;2024-03-23T12:42:07;7.10;;;4.80;;
78840;SDS011;68379;47.190;27.558;2024-03-23T12:44:38;6.30;;;4.70;;
78840;SDS011;68379;47.190;27.558;2024-03-23T12:47:10;8.20;;;4.90;;
78840;SDS011;68379;47.190;27.558;2024-03-23T12:49:41;7.80;;;5.90;;
78840;SDS011;68379;47.190;27.558;2024-03-23T12:52:14;7.90;;;5.10;;
78840;SDS011;68379;47.190;27.558;2024-03-23T12:57:18;8.60;;;5.70;;
78840;SDS011;68379;47.190;27.558;2024-03-23T12:59:51;7.60;;;5.00;;
78840;SDS011;68379;47.190;27.558;2024-03-23T13:02:24;7.20;;;5.00;;
78840;SDS011;68379;47.190;27.558;2024-03-23T13:04:55;6.80;;;4.80;;
78840;SDS011;68379;47.190;27.558;2024-03-23T13:07:27;6.50;;;4.80;;
78840;SDS011;68379;47.190;27.558;2024-03-23T13:09:59;8.40;;;5.00;;
78840;SDS011;68379;47.190;27.558;2024-03-23T13:12:32;7.00;;;4.80;;
78840;SDS011;68379;47.190;27.558;2024-03-23T13:15:05;7.10;;;5.00;;
78840;SDS011;68379;47.190;27.558;2024-03-23T13:17:37;5.80;;;4.50;;
78840;SDS011;68379;47.190;27.558;2024-03-23T13:20:10;8.20;;;4.60;;
78840;SDS011;68379;47.190;27.558;2024-03-23T13:22:43;6.80;;;4.30;;
78840;SDS011;68379;47.190;27.558;2024-03-23T13:25:15;5.70;;;4.10;;
78840;SDS011;68379;47.190;27.558;2024-03-23T13:27:47;7.10;;;4.90;;
78840;SDS011;68379;47.190;27.558;2024-03-23T13:30:21;7.00;;;4.20;;
78840;SDS011;68379;47.190;27.558;2024-03-23T13:32:54;7.40;;;4.70;;
78840;SDS011;68379;47.190;27.558;2024-03-23T13:35:25;6.10;;;4.30;;
78840;SDS011;68379;47.190;27.558;2024-03-23T13:37:58;5.70;;;4.40;;
78840;SDS011;68379;47.190;27.558;2024-03-23T13:40:34;7.30;;;4.50;;
78840;SDS011;68379;47.190;27.558;2024-03-23T13:43:06;5.70;;;4.20;;
78840;SDS011;68379;47.190;27.558;2024-03-23T13:45:38;7.30;;;4.10;;
78840;SDS011;68379;47.190;27.558;2024-03-23T13:48:09;5.90;;;4.30;;
78840;SDS011;68379;47.190;27.558;2024-03-23T13:50:41;5.30;;;4.60;;
78840;SDS011;68379;47.190;27.558;2024-03-23T13:53:13;5.90;;;4.40;;
78840;SDS011;68379;47.190;27.558;2024-03-23T13:55:50;5.10;;;4.00;;
78840;SDS011;68379;47.190;27.558;2024-03-23T13:58:23;6.80;;;4.10;;
78840;SDS011;68379;47.190;27.558;2024-03-23T14:00:55;6.20;;;4.30;;
78840;SDS011;68379;47.190;27.558;2024-03-23T14:06:01;9.60;;;4.90;;
78840;SDS011;68379;47.190;27.558;2024-03-23T14:08:35;6.90;;;4.30;;
78840;SDS011;68379;47.190;27.558;2024-03-23T14:11:08;6.70;;;4.50;;
78840;SDS011;68379;47.190;27.558;2024-03-23T14:13:39;5.40;;;4.50;;
78840;SDS011;68379;47.190;27.558;2024-03-23T14:16:11;6.40;;;4.40;;
78840;SDS011;68379;47.190;27.558;2024-03-23T14:18:42;6.80;;;4.30;;
78840;SDS011;68379;47.190;27.558;2024-03-23T14:21:16;6.70;;;5.00;;
78840;SDS011;68379;47.190;27.558;2024-03-23T14:23:49;8.60;;;6.10;;
78840;SDS011;68379;47.190;27.558;2024-03-23T14:26:21;9.00;;;5.70;;
78840;SDS011;68379;47.190;27.558;2024-03-23T14:28:53;7.90;;;4.50;;
78840;SDS011;68379;47.190;27.558;2024-03-23T14:31:24;7.90;;;5.40;;
78840;SDS011;68379;47.190;27.558;2024-03-23T14:33:56;8.10;;;5.40;;
78840;SDS011;68379;47.190;27.558;2024-03-23T14:36:29;8.90;;;5.00;;
78840;SDS011;68379;47.190;27.558;2024-03-23T14:39:04;6.00;;;4.90;;
78840;SDS011;68379;47.190;27.558;2024-03-23T14:41:35;7.30;;;5.30;;
78840;SDS011;68379;47.190;27.558;2024-03-23T14:44:06;7.80;;;5.00;;
78840;SDS011;68379;47.190;27.558;2024-03-23T14:46:38;6.90;;;4.80;;
78840;SDS011;68379;47.190;27.558;2024-03-23T14:51:44;6.50;;;5.00;;
78840;SDS011;68379;47.190;27.558;2024-03-23T14:54:16;7.50;;;5.80;;
78840;SDS011;68379;47.190;27.558;2024-03-23T14:56:47;7.00;;;5.60;;
78840;SDS011;68379;47.190;27.558;2024-03-23T14:59:21;10.00;;;5.50;;
78840;SDS011;68379;47.190;27.558;2024-03-23T15:04:56;8.70;;;5.20;;
78840;SDS011;68379;47.190;27.558;2024-03-23T15:07:29;8.30;;;5.60;;
78840;SDS011;68379;47.190;27.558;2024-03-23T15:10:01;9.50;;;6.20;;
78840;SDS011;68379;47.190;27.558;2024-03-23T15:12:32;9.60;;;6.30;;
78840;SDS011;68379;47.190;27.558;2024-03-23T15:15:05;8.70;;;5.70;;
78840;SDS011;68379;47.190;27.558;2024-03-23T15:20:10;9.70;;;5.80;;
78840;SDS011;68379;47.190;27.558;2024-03-23T15:22:41;8.80;;;6.10;;
78840;SDS011;68379;47.190;27.558;2024-03-23T15:25:13;10.90;;;6.30;;
78840;SDS011;68379;47.190;27.558;2024-03-23T15:27:45;9.10;;;6.30;;
78840;SDS011;68379;47.190;27.558;2024-03-23T15:30:16;10.90;;;6.90;;
78840;SDS011;68379;47.190;27.558;2024-03-23T15:32:47;10.00;;;7.10;;
78840;SDS011;68379;47.190;27.558;2024-03-23T15:35:20;9.00;;;6.00;;
78840;SDS011;68379;47.190;27.558;2024-03-23T15:37:52;10.40;;;7.10;;
78840;SDS011;68379;47.190;27.558;2024-03-23T15:40:23;12.40;;;7.10;;
78840;SDS011;68379;47.190;27.558;2024-03-23T15:42:56;11.80;;;7.70;;
78840;SDS011;68379;47.190;27.558;2024-03-23T15:45:31;11.30;;;8.00;;
78840;SDS011;68379;47.190;27.558;2024-03-23T15:48:03;11.50;;;7.80;;
78840;SDS011;68379;47.190;27.558;2024-03-23T15:50:35;11.50;;;7.60;;
78840;SDS011;68379;47.190;27.558;2024-03-23T15:53:09;11.60;;;7.30;;
78840;SDS011;68379;47.190;27.558;2024-03-23T15:55:41;13.10;;;7.20;;
78840;SDS011;68379;47.190;27.558;2024-03-23T15:58:14;12.00;;;8.10;;
78840;SDS011;68379;47.190;27.558;2024-03-23T16:00:55;12.80;;;8.10;;
78840;SDS011;68379;47.190;27.558;2024-03-23T16:03:28;12.30;;;8.10;;
78840;SDS011;68379;47.190;27.558;2024-03-23T16:06:02;13.30;;;7.70;;
78840;SDS011;68379;47.190;27.558;2024-03-23T16:08:35;11.80;;;7.00;;
78840;SDS011;68379;47.190;27.558;2024-03-23T16:11:06;12.80;;;7.00;;
78840;SDS011;68379;47.190;27.558;2024-03-23T16:13:38;11.80;;;7.60;;
78840;SDS011;68379;47.190;27.558;2024-03-23T16:16:11;11.90;;;6.60;;
78840;SDS011;68379;47.190;27.558;2024-03-23T16:18:44;12.00;;;6.20;;
78840;SDS011;68379;47.190;27.558;2024-03-23T16:21:15;16.10;;;7.50;;
78840;SDS011;68379;47.190;27.558;2024-03-23T16:23:47;12.10;;;7.00;;
78840;SDS011;68379;47.190;27.558;2024-03-23T16:26:19;10.60;;;7.00;;
78840;SDS011;68379;47.190;27.558;2024-03-23T16:28:50;11.20;;;6.70;;